createdAt,value
2023-04-18T00:02:01.616Z,50.89
2023-04-18T00:05:05.561Z,50.93
2023-04-18T00:08:08.181Z,50.85
2023-04-18T00:11:10.437Z,50.83
2023-04-18T00:14:13.548Z,50.88
2023-04-18T00:17:16.129Z,50.87
2023-04-18T00:20:18.297Z,50.90
2023-04-18T00:23:21.530Z,50.83
2023-04-18T00:26:23.659Z,50.88
2023-04-18T00:29:25.701Z,50.88
2023-04-18T00:32:28.313Z,50.85
2023-04-18T00:35:31.837Z,50.91
2023-04-18T00:38:33.908Z,50.84
2023-04-18T00:41:36.037Z,50.89
2023-04-18T00:44:38.166Z,50.84
2023-04-18T00:47:40.238Z,50.92
2023-04-18T00:50:42.536Z,50.85
2023-04-18T00:53:45.415Z,50.84
2023-04-18T00:56:48.463Z,50.88
2023-04-18T00:59:51.014Z,50.91
2023-04-18T01:02:55.833Z,50.85
2023-04-18T01:05:58.082Z,50.86
2023-04-18T01:09:00.182Z,50.97
2023-04-18T01:12:02.279Z,50.96
2023-04-18T01:15:08.120Z,50.92
2023-04-18T01:18:11.668Z,50.98
2023-04-18T01:21:14.646Z,50.88
2023-04-18T01:24:17.612Z,50.95
2023-04-18T01:27:19.856Z,50.98
2023-04-18T01:30:22.329Z,50.87
2023-04-18T01:33:24.441Z,50.89
2023-04-18T01:36:27.627Z,50.93
2023-04-18T01:39:29.671Z,50.94
2023-04-18T01:42:31.746Z,50.95
2023-04-18T01:45:33.898Z,50.90
2023-04-18T01:48:35.979Z,50.98
2023-04-18T01:51:38.927Z,50.97
2023-04-18T01:54:41.281Z,51.01
2023-04-18T01:57:43.333Z,50.94
2023-04-18T02:00:45.481Z,51.02
2023-04-18T02:03:47.690Z,50.97
2023-04-18T02:06:49.902Z,50.95
2023-04-18T02:09:51.879Z,50.94
2023-04-18T02:12:53.942Z,50.95
2023-04-18T02:15:55.981Z,51.01
2023-04-18T02:18:58.039Z,51.04
2023-04-18T02:22:00.503Z,51.01
2023-04-18T02:25:02.595Z,50.97
2023-04-18T02:28:04.825Z,51.00
2023-04-18T02:31:07.579Z,51.01
2023-04-18T02:34:09.659Z,51.01
2023-04-18T02:37:11.698Z,51.06
2023-04-18T02:40:13.934Z,50.98
2023-04-18T02:43:15.948Z,50.98
2023-04-18T02:46:18.075Z,51.01
2023-04-18T02:49:20.170Z,51.04
2023-04-18T02:52:22.310Z,51.03
2023-04-18T02:55:26.749Z,51.11
2023-04-18T02:58:29.380Z,51.03
2023-04-18T03:01:31.419Z,51.01
2023-04-18T03:04:33.508Z,51.08
2023-04-18T03:07:35.699Z,51.12
2023-04-18T03:10:38.144Z,51.05
2023-04-18T03:13:40.429Z,51.11
2023-04-18T03:16:42.499Z,51.10
2023-04-18T03:19:45.494Z,51.14
2023-04-18T03:22:47.526Z,51.17
2023-04-18T03:25:49.754Z,51.14
2023-04-18T03:28:51.800Z,51.21
2023-04-18T03:31:53.834Z,51.24
2023-04-18T03:34:56.004Z,51.01
2023-04-18T03:37:57.992Z,50.53
2023-04-18T03:41:00.301Z,50.12
2023-04-18T03:44:02.317Z,49.82
2023-04-18T03:47:04.463Z,49.66
2023-04-18T03:50:06.900Z,49.34
2023-04-18T03:53:08.964Z,49.13
2023-04-18T03:56:11.193Z,49.18
2023-04-18T03:59:13.380Z,49.28
2023-04-18T04:02:15.968Z,49.27
2023-04-18T04:05:18.156Z,49.18
2023-04-18T04:08:20.421Z,49.03
2023-04-18T04:11:22.760Z,48.83
2023-04-18T04:14:24.819Z,48.66
2023-04-18T04:17:27.024Z,48.59
2023-04-18T04:20:29.161Z,48.66
2023-04-18T04:23:31.186Z,48.67
2023-04-18T04:26:34.446Z,48.66
2023-04-18T04:29:38.601Z,48.67
2023-04-18T04:32:40.785Z,48.74
2023-04-18T04:35:43.775Z,48.79
2023-04-18T04:38:45.855Z,48.72
2023-04-18T04:41:48.863Z,48.70
2023-04-18T04:44:51.036Z,48.74
2023-04-18T04:47:53.285Z,48.73
2023-04-18T04:50:57.282Z,48.78
2023-04-18T04:53:59.316Z,48.83
2023-04-18T04:57:02.141Z,48.82
2023-04-18T05:00:06.003Z,48.75
2023-04-18T05:03:08.411Z,48.57
2023-04-18T05:06:10.801Z,48.44
2023-04-18T05:09:13.495Z,48.19
2023-04-18T05:12:15.524Z,48.09
2023-04-18T05:15:18.627Z,48.25
2023-04-18T05:18:20.851Z,48.30
2023-04-18T05:21:24.602Z,48.26
2023-04-18T05:24:26.750Z,48.24
2023-04-18T05:27:28.968Z,48.23
2023-04-18T05:30:31.322Z,48.02
2023-04-18T05:33:33.477Z,47.76
2023-04-18T05:36:35.876Z,47.48
2023-04-18T05:39:37.924Z,47.34
2023-04-18T05:42:40.046Z,47.31
2023-04-18T05:45:42.102Z,48.46
2023-04-18T05:48:44.110Z,49.60
2023-04-18T05:51:46.575Z,49.98
2023-04-18T05:54:48.626Z,49.08
2023-04-18T05:57:50.690Z,47.58
2023-04-18T06:00:53.692Z,46.96
2023-04-18T06:03:56.413Z,46.35
2023-04-18T06:06:58.731Z,46.20
2023-04-18T06:10:04.289Z,46.40
2023-04-18T06:13:06.390Z,46.57
2023-04-18T06:16:09.154Z,46.73
2023-04-18T06:19:12.205Z,46.71
2023-04-18T06:22:16.123Z,46.51
2023-04-18T06:25:18.855Z,46.65
2023-04-18T06:28:20.928Z,46.48
2023-04-18T06:31:23.031Z,46.44
2023-04-18T06:34:25.376Z,46.41
2023-04-18T06:37:27.486Z,46.21
2023-04-18T06:40:29.546Z,46.47
2023-04-18T06:43:31.558Z,46.45
2023-04-18T06:46:33.758Z,46.64
2023-04-18T06:49:35.774Z,46.80
2023-04-18T06:52:40.601Z,46.76
2023-04-18T06:55:42.711Z,46.66
2023-04-18T06:58:45.313Z,46.93
2023-04-18T07:01:47.706Z,46.85
2023-04-18T07:04:50.630Z,46.94
2023-04-18T07:07:57.959Z,47.04
2023-04-18T07:11:01.451Z,47.05
2023-04-18T07:14:03.501Z,47.20
2023-04-18T07:17:05.734Z,47.43
2023-04-18T07:20:08.523Z,47.86
2023-04-18T07:23:10.530Z,47.83
2023-04-18T07:26:13.653Z,47.40
2023-04-18T07:29:15.710Z,47.04
2023-04-18T07:32:17.940Z,46.75
2023-04-18T07:35:20.140Z,46.72
2023-04-18T07:38:22.180Z,46.60
2023-04-18T07:41:24.457Z,46.68
2023-04-18T07:44:26.509Z,47.12
2023-04-18T07:47:30.425Z,48.12
2023-04-18T07:50:32.926Z,47.26
2023-04-18T07:53:35.016Z,47.23
2023-04-18T07:56:37.155Z,47.14
2023-04-18T07:59:39.340Z,46.98
2023-04-18T08:02:41.921Z,46.87
2023-04-18T08:05:44.123Z,46.53
2023-04-18T08:08:46.355Z,46.19
2023-04-18T08:11:48.384Z,46.09
2023-04-18T08:14:50.497Z,46.00
2023-04-18T08:17:52.657Z,45.75
2023-04-18T08:20:54.816Z,45.77
2023-04-18T08:23:57.086Z,45.80
2023-04-18T08:26:59.121Z,45.89
2023-04-18T08:30:03.697Z,46.07
2023-04-18T08:33:06.080Z,46.15
2023-04-18T08:36:08.531Z,46.49
2023-04-18T08:39:10.511Z,46.62
2023-04-18T08:42:19.071Z,46.67
2023-04-18T08:45:21.207Z,46.83
2023-04-18T08:48:23.542Z,47.02
2023-04-18T08:51:29.210Z,47.10
2023-04-18T08:54:31.609Z,47.17
2023-04-18T08:57:35.468Z,47.23
2023-04-18T09:00:37.803Z,47.30
2023-04-18T09:03:41.964Z,47.43
2023-04-18T09:06:53.140Z,47.51
2023-04-18T09:09:59.322Z,47.65
2023-04-18T09:13:03.400Z,47.67
2023-04-18T09:16:06.282Z,47.71
2023-04-18T09:19:21.657Z,47.78
2023-04-18T09:22:23.835Z,47.69
2023-04-18T09:25:35.699Z,47.65
2023-04-18T09:28:38.472Z,47.64
2023-04-18T09:32:01.181Z,47.72
2023-04-18T09:35:05.314Z,47.60
2023-04-18T09:38:08.265Z,47.73
2023-04-18T09:41:11.564Z,48.08
2023-04-18T09:44:15.733Z,48.20
2023-04-18T09:47:18.072Z,48.24
2023-04-18T09:50:20.780Z,47.99
2023-04-18T09:53:24.259Z,47.98
2023-04-18T09:56:29.461Z,48.00
2023-04-18T09:59:57.765Z,48.08
2023-04-18T10:03:10.673Z,48.36
2023-04-18T10:06:16.734Z,48.56
2023-04-18T10:09:20.031Z,48.46
2023-04-18T10:12:22.312Z,48.52
2023-04-18T10:15:27.378Z,48.56
2023-04-18T10:18:29.487Z,48.47
2023-04-18T10:21:31.666Z,48.51
2023-04-18T10:24:50.461Z,48.70
2023-04-18T10:28:00.042Z,48.76
2023-04-18T10:31:03.957Z,48.84
2023-04-18T10:34:07.304Z,48.89
2023-04-18T10:37:09.528Z,48.89
2023-04-18T10:40:11.823Z,49.02
2023-04-18T10:43:13.817Z,49.02
2023-04-18T10:46:28.310Z,49.08
2023-04-18T10:49:36.453Z,49.17
2023-04-18T10:52:39.033Z,49.43
2023-04-18T10:55:46.953Z,50.37
2023-04-18T10:58:52.928Z,50.62
2023-04-18T11:01:57.484Z,51.46
2023-04-18T11:05:01.441Z,52.10
2023-04-18T11:08:03.611Z,54.85
2023-04-18T11:11:09.329Z,54.68
2023-04-18T11:14:11.553Z,56.42
2023-04-18T11:17:33.070Z,55.36
2023-04-18T11:20:39.445Z,54.96
2023-04-18T11:23:41.759Z,54.97
2023-04-18T11:26:44.801Z,54.76
2023-04-18T11:29:53.074Z,54.26
2023-04-18T11:32:55.955Z,53.99
2023-04-18T11:35:59.427Z,53.75
2023-04-18T11:39:01.476Z,53.85
2023-04-18T11:42:03.584Z,53.67
2023-04-18T11:45:15.484Z,53.85
2023-04-18T11:48:17.649Z,53.89
2023-04-18T11:51:38.628Z,53.91
2023-04-18T11:54:43.136Z,53.67
2023-04-18T11:57:51.828Z,53.35
2023-04-18T12:00:54.044Z,53.20
2023-04-18T12:04:04.275Z,53.02
2023-04-18T12:07:06.604Z,53.16
2023-04-18T12:10:30.457Z,53.25
2023-04-18T12:13:33.105Z,53.30
2023-04-18T12:16:35.652Z,52.96
2023-04-18T12:19:37.821Z,53.01
2023-04-18T12:22:45.639Z,53.10
2023-04-18T12:26:01.392Z,52.76
2023-04-18T12:29:03.564Z,52.85
2023-04-18T12:32:06.083Z,52.45
2023-04-18T12:35:09.075Z,52.47
2023-04-18T12:38:11.203Z,52.32
2023-04-18T12:41:13.219Z,52.33
2023-04-18T12:44:15.443Z,52.29
2023-04-18T12:47:17.766Z,52.07
2023-04-18T12:50:22.746Z,52.03
2023-04-18T12:53:24.865Z,52.04
2023-04-18T12:56:26.887Z,52.04
2023-04-18T12:59:30.111Z,52.10
2023-04-18T13:02:34.516Z,51.95
2023-04-18T13:05:36.789Z,51.77
2023-04-18T13:08:38.837Z,51.43
2023-04-18T13:11:40.874Z,51.53
2023-04-18T13:14:43.263Z,51.42
2023-04-18T13:17:45.512Z,51.25
2023-04-18T13:20:47.757Z,51.33
2023-04-18T13:23:49.837Z,51.26
2023-04-18T13:26:51.869Z,51.28
2023-04-18T13:29:54.955Z,51.26
2023-04-18T13:32:57.119Z,51.30
2023-04-18T13:35:59.167Z,51.14
2023-04-18T13:39:01.753Z,51.21
2023-04-18T13:42:04.461Z,51.24
2023-04-18T13:45:07.302Z,51.12
2023-04-18T13:48:09.861Z,51.03
2023-04-18T13:51:12.083Z,50.98
2023-04-18T13:54:16.378Z,50.85
2023-04-18T13:57:18.410Z,50.81
2023-04-18T14:00:20.845Z,50.79
2023-04-18T14:03:23.073Z,50.77
2023-04-18T14:06:27.641Z,50.64
2023-04-18T14:09:29.925Z,50.30
2023-04-18T14:12:32.184Z,50.32
2023-04-18T14:15:34.904Z,50.42
2023-04-18T14:18:37.501Z,50.11
2023-04-18T14:21:39.547Z,50.04
2023-04-18T14:24:41.663Z,49.95
2023-04-18T14:27:48.613Z,50.05
2023-04-18T14:30:51.804Z,49.91
2023-04-18T14:33:54.105Z,50.14
2023-04-18T14:36:56.650Z,50.19
2023-04-18T14:39:59.398Z,50.30
2023-04-18T14:43:01.876Z,50.27
2023-04-18T14:46:03.966Z,50.30
2023-04-18T14:49:06.108Z,50.29
2023-04-18T14:52:08.295Z,50.30
2023-04-18T14:55:10.799Z,50.36
2023-04-18T14:58:12.907Z,50.25
2023-04-18T15:01:15.400Z,50.05
2023-04-18T15:04:17.796Z,49.90
2023-04-18T15:07:20.376Z,49.82
2023-04-18T15:10:22.537Z,49.69
2023-04-18T15:13:25.289Z,49.72
2023-04-18T15:16:27.497Z,49.73
2023-04-18T15:19:30.648Z,49.92
2023-04-18T15:22:33.030Z,49.86
2023-04-18T15:25:35.771Z,49.76
2023-04-18T15:28:37.781Z,49.57
2023-04-18T15:31:40.047Z,49.52
2023-04-18T15:34:42.117Z,49.27
2023-04-18T15:37:44.226Z,48.95
2023-04-18T15:40:46.337Z,49.00
2023-04-18T15:43:48.544Z,49.18
2023-04-18T15:46:50.959Z,49.33
2023-04-18T15:49:53.400Z,49.27
2023-04-18T15:52:56.345Z,49.34
2023-04-18T15:56:01.590Z,49.57
2023-04-18T15:59:05.282Z,49.85
2023-04-18T16:02:08.727Z,50.05
2023-04-18T16:05:12.399Z,50.06
2023-04-18T16:08:14.467Z,50.05
2023-04-18T16:11:16.953Z,50.18
2023-04-18T16:14:19.304Z,50.14
2023-04-18T16:17:21.418Z,50.05
2023-04-18T16:20:23.542Z,50.12
2023-04-18T16:23:26.468Z,50.22
2023-04-18T16:26:28.868Z,50.19
2023-04-18T16:29:30.909Z,50.23
2023-04-18T16:32:33.051Z,50.13
2023-04-18T16:35:35.477Z,50.30
2023-04-18T16:38:37.608Z,50.39
2023-04-18T16:41:39.745Z,50.41
2023-04-18T16:44:41.809Z,50.16
2023-04-18T16:47:44.128Z,50.13
2023-04-18T16:50:46.383Z,50.09
2023-04-18T16:53:49.075Z,50.09
2023-04-18T16:56:51.074Z,50.04
2023-04-18T16:59:53.089Z,50.15
2023-04-18T17:02:55.904Z,50.45
2023-04-18T17:05:58.083Z,50.71
2023-04-18T17:09:00.716Z,50.99
2023-04-18T17:12:03.205Z,51.08
2023-04-18T17:15:05.756Z,51.18
2023-04-18T17:18:07.826Z,51.13
2023-04-18T17:21:12.470Z,51.09
2023-04-18T17:24:14.551Z,51.07
2023-04-18T17:27:16.628Z,51.06
2023-04-18T17:30:18.756Z,51.14
2023-04-18T17:33:21.007Z,51.11
2023-04-18T17:36:23.454Z,51.09
2023-04-18T17:39:25.740Z,51.04
2023-04-18T17:42:27.766Z,51.03
2023-04-18T17:45:29.919Z,50.88
2023-04-18T17:48:32.476Z,50.78
2023-04-18T17:51:34.616Z,50.72
2023-04-18T17:54:36.651Z,50.61
2023-04-18T17:57:38.770Z,50.58
2023-04-18T18:00:40.959Z,50.82
2023-04-18T18:03:44.540Z,50.77
2023-04-18T18:06:56.663Z,50.82
2023-04-18T18:10:02.554Z,50.88
2023-04-18T18:13:05.180Z,50.90
2023-04-18T18:16:10.609Z,51.02
2023-04-18T18:19:14.694Z,51.01
2023-04-18T18:22:17.689Z,50.73
2023-04-18T18:25:20.751Z,50.23
2023-04-18T18:28:22.816Z,50.35
2023-04-18T18:31:25.033Z,49.61
2023-04-18T18:34:29.699Z,49.82
2023-04-18T18:37:32.281Z,50.08
2023-04-18T18:40:34.365Z,49.90
2023-04-18T18:43:36.508Z,49.86
2023-04-18T18:46:38.804Z,49.49
2023-04-18T18:49:40.897Z,49.51
2023-04-18T18:52:43.254Z,49.55
2023-04-18T18:55:45.564Z,49.76
2023-04-18T18:58:47.897Z,49.58
2023-04-18T19:01:49.992Z,49.60
2023-04-18T19:04:52.453Z,48.86
2023-04-18T19:07:54.675Z,48.89
2023-04-18T19:10:56.735Z,48.90
2023-04-18T19:13:58.771Z,49.01
2023-04-18T19:17:00.838Z,49.16
2023-04-18T19:20:03.349Z,48.82
2023-04-18T19:23:05.603Z,48.98
2023-04-18T19:26:08.115Z,49.08
2023-04-18T19:29:11.439Z,48.91
2023-04-18T19:32:13.695Z,49.05
2023-04-18T19:35:15.766Z,49.08
2023-04-18T19:38:17.833Z,49.00
2023-04-18T19:41:19.866Z,49.20
2023-04-18T19:44:22.116Z,49.04
2023-04-18T19:47:24.371Z,49.05
2023-04-18T19:50:26.513Z,49.05
2023-04-18T19:53:28.564Z,49.18
2023-04-18T19:56:30.585Z,49.05
2023-04-18T19:59:32.587Z,49.18
2023-04-18T20:02:34.787Z,49.15
2023-04-18T20:05:37.181Z,49.06
2023-04-18T20:08:44.394Z,49.23
2023-04-18T20:11:47.678Z,49.14
2023-04-18T20:14:50.258Z,49.26
2023-04-18T20:17:52.357Z,49.24
2023-04-18T20:20:54.427Z,49.39
2023-04-18T20:23:56.599Z,49.29
2023-04-18T20:27:00.664Z,49.33
2023-04-18T20:30:02.827Z,49.39
2023-04-18T20:33:04.900Z,49.60
2023-04-18T20:36:07.406Z,49.62
2023-04-18T20:39:09.863Z,49.74
2023-04-18T20:42:14.671Z,49.63
2023-04-18T20:45:16.784Z,49.68
2023-04-18T20:48:19.189Z,49.69
2023-04-18T20:51:21.440Z,49.76
2023-04-18T20:54:23.705Z,49.73
2023-04-18T20:57:25.919Z,49.67
2023-04-18T21:00:28.417Z,49.63
2023-04-18T21:03:30.913Z,49.80
2023-04-18T21:06:33.218Z,49.85
2023-04-18T21:09:37.919Z,49.82
2023-04-18T21:12:39.966Z,49.82
2023-04-18T21:15:42.678Z,49.85
2023-04-18T21:18:44.692Z,49.82
2023-04-18T21:21:46.984Z,49.97
2023-04-18T21:24:49.045Z,49.96
2023-04-18T21:27:51.260Z,50.08
2023-04-18T21:30:53.268Z,50.03
2023-04-18T21:33:59.866Z,50.06
2023-04-18T21:37:01.858Z,49.97
2023-04-18T21:40:04.518Z,50.02
2023-04-18T21:43:06.702Z,50.08
2023-04-18T21:46:08.783Z,50.08
2023-04-18T21:49:10.808Z,50.05
2023-04-18T21:52:12.864Z,50.09
2023-04-18T21:55:14.892Z,50.22
2023-04-18T21:58:17.157Z,50.08
2023-04-18T22:01:19.397Z,50.15
2023-04-18T22:04:25.916Z,50.05
2023-04-18T22:07:29.468Z,50.18
2023-04-18T22:10:34.000Z,50.22
2023-04-18T22:13:36.106Z,50.25
2023-04-18T22:16:38.411Z,50.16
2023-04-18T22:19:41.465Z,50.25
2023-04-18T22:22:44.217Z,50.23
2023-04-18T22:25:46.410Z,50.31
2023-04-18T22:28:48.446Z,50.29
2023-04-18T22:31:50.799Z,50.18
2023-04-18T22:34:52.791Z,50.22
2023-04-18T22:37:55.857Z,50.34
2023-04-18T22:40:59.393Z,50.26
2023-04-18T22:44:01.490Z,50.37
2023-04-18T22:47:03.565Z,50.30
2023-04-18T22:50:06.226Z,50.43
2023-04-18T22:53:09.372Z,50.43
2023-04-18T22:56:11.439Z,50.47
2023-04-18T22:59:13.466Z,50.48
2023-04-18T23:02:15.888Z,50.45
2023-04-18T23:05:17.965Z,50.46
2023-04-18T23:08:22.342Z,50.56
2023-04-18T23:11:24.944Z,50.53
2023-04-18T23:14:27.439Z,50.57
2023-04-18T23:17:29.665Z,50.63
2023-04-18T23:20:31.841Z,50.58
2023-04-18T23:23:33.996Z,50.59
2023-04-18T23:26:36.426Z,50.62
2023-04-18T23:29:39.262Z,50.74
2023-04-18T23:32:41.360Z,50.73
2023-04-18T23:35:43.524Z,50.76
2023-04-18T23:38:45.611Z,50.82
2023-04-18T23:41:47.716Z,50.69
2023-04-18T23:44:49.774Z,50.75
2023-04-18T23:47:52.602Z,50.83
2023-04-18T23:50:54.805Z,50.73
2023-04-18T23:53:56.888Z,50.78
2023-04-18T23:56:58.950Z,50.77
